sensor_id;sensor_type;location;lat;lon;timestamp;pressure;altitude;pressure_sealevel;temperature;humidity
46412;BME280;32113;42.012;24.870;2023-06-14T00:02:17;98643.44;;;21.77;74.27
46412;BME280;32113;42.012;24.870;2023-06-14T00:04:43;98648.66;;;21.77;73.25
46412;BME280;32113;42.012;24.870;2023-06-14T00:07:08;98643.78;;;21.86;72.25
46412;BME280;32113;42.012;24.870;2023-06-14T00:09:34;98649.19;;;21.83;71.90
46412;BME280;32113;42.012;24.870;2023-06-14T00:12:00;98651.63;;;21.86;72.51
46412;BME280;32113;42.012;24.870;2023-06-14T00:14:26;98644.91;;;21.82;71.31
46412;BME280;32113;42.012;24.870;2023-06-14T00:16:51;98642.50;;;21.78;71.87
46412;BME280;32113;42.012;24.870;2023-06-14T00:19:24;98642.84;;;21.87;71.61
46412;BME280;32113;42.012;24.870;2023-06-14T00:21:50;98638.47;;;21.87;71.27
46412;BME280;32113;42.012;24.870;2023-06-14T00:24:17;98642.50;;;21.78;72.07
46412;BME280;32113;42.012;24.870;2023-06-14T00:26:42;98636.06;;;21.84;71.61
46412;BME280;32113;42.012;24.870;2023-06-14T00:29:08;98629.16;;;21.69;71.50
46412;BME280;32113;42.012;24.870;2023-06-14T00:31:33;98631.63;;;21.72;71.40
46412;BME280;32113;42.012;24.870;2023-06-14T00:33:59;98633.22;;;21.60;71.18
46412;BME280;32113;42.012;24.870;2023-06-14T00:36:24;98625.47;;;21.58;72.09
46412;BME280;32113;42.012;24.870;2023-06-14T00:38:49;98625.56;;;21.57;72.16
46412;BME280;32113;42.012;24.870;2023-06-14T00:41:15;98620.88;;;21.62;72.11
46412;BME280;32113;42.012;24.870;2023-06-14T00:43:40;98618.50;;;21.44;71.71
46412;BME280;32113;42.012;24.870;2023-06-14T00:46:06;98615.69;;;21.47;72.16
46412;BME280;32113;42.012;24.870;2023-06-14T00:48:32;98616.34;;;21.51;72.42
46412;BME280;32113;42.012;24.870;2023-06-14T00:50:59;98611.22;;;21.49;72.59
46412;BME280;32113;42.012;24.870;2023-06-14T00:53:29;98609.53;;;21.48;72.67
46412;BME280;32113;42.012;24.870;2023-06-14T00:55:55;98611.22;;;21.49;73.09
46412;BME280;32113;42.012;24.870;2023-06-14T00:58:21;98608.50;;;21.51;73.20
46412;BME280;32113;42.012;24.870;2023-06-14T01:00:47;98602.94;;;21.43;73.12
46412;BME280;32113;42.012;24.870;2023-06-14T01:03:13;98607.31;;;21.42;73.79
46412;BME280;32113;42.012;24.870;2023-06-14T01:05:44;98600.31;;;21.43;74.39
46412;BME280;32113;42.012;24.870;2023-06-14T01:08:28;98610.19;;;21.52;73.13
46412;BME280;32113;42.012;24.870;2023-06-14T01:13:45;98607.56;;;21.52;73.93
46412;BME280;32113;42.012;24.870;2023-06-14T01:16:11;98606.50;;;21.27;74.36
46412;BME280;32113;42.012;24.870;2023-06-14T01:18:37;98605.38;;;21.31;74.43
46412;BME280;32113;42.012;24.870;2023-06-14T01:21:03;98601.84;;;21.32;74.70
46412;BME280;32113;42.012;24.870;2023-06-14T01:23:33;98604.91;;;21.39;74.79
46412;BME280;32113;42.012;24.870;2023-06-14T01:26:00;98598.84;;;21.38;75.17
46412;BME280;32113;42.012;24.870;2023-06-14T01:28:28;98609.19;;;21.25;74.14
46412;BME280;32113;42.012;24.870;2023-06-14T01:30:59;98594.13;;;21.16;74.38
46412;BME280;32113;42.012;24.870;2023-06-14T01:33:27;98598.63;;;20.99;75.48
46412;BME280;32113;42.012;24.870;2023-06-14T01:35:54;98595.91;;;21.01;75.80
46412;BME280;32113;42.012;24.870;2023-06-14T01:38:24;98592.75;;;21.10;75.23
46412;BME280;32113;42.012;24.870;2023-06-14T01:40:50;98592.53;;;21.13;74.69
46412;BME280;32113;42.012;24.870;2023-06-14T01:43:18;98589.44;;;21.21;74.82
46412;BME280;32113;42.012;24.870;2023-06-14T01:45:45;98596.25;;;21.24;74.75
46412;BME280;32113;42.012;24.870;2023-06-14T01:48:12;98601.19;;;21.29;74.34
46412;BME280;32113;42.012;24.870;2023-06-14T01:50:38;98599.88;;;21.36;74.03
46412;BME280;32113;42.012;24.870;2023-06-14T01:53:07;98598.84;;;21.38;73.76
46412;BME280;32113;42.012;24.870;2023-06-14T01:55:33;98603.88;;;21.42;73.98
46412;BME280;32113;42.012;24.870;2023-06-14T01:58:03;98603.91;;;21.27;73.77
46412;BME280;32113;42.012;24.870;2023-06-14T02:00:28;98606.97;;;21.19;74.02
46412;BME280;32113;42.012;24.870;2023-06-14T02:02:54;98608.28;;;21.12;74.10
46412;BME280;32113;42.012;24.870;2023-06-14T02:05:21;98612.38;;;21.02;74.81
46412;BME280;32113;42.012;24.870;2023-06-14T02:07:46;98613.50;;;20.97;75.67
46412;BME280;32113;42.012;24.870;2023-06-14T02:10:12;98610.72;;;21.00;76.30
46412;BME280;32113;42.012;24.870;2023-06-14T02:12:38;98607.00;;;21.05;76.70
46412;BME280;32113;42.012;24.870;2023-06-14T02:15:04;98605.97;;;21.07;77.48
46412;BME280;32113;42.012;24.870;2023-06-14T02:17:30;98606.44;;;21.14;77.29
46412;BME280;32113;42.012;24.870;2023-06-14T02:19:56;98604.38;;;21.19;77.49
46412;BME280;32113;42.012;24.870;2023-06-14T02:22:22;98610.13;;;21.24;77.58
46412;BME280;32113;42.012;24.870;2023-06-14T02:24:48;98603.03;;;21.26;78.22
46412;BME280;32113;42.012;24.870;2023-06-14T02:27:14;98604.28;;;21.21;79.39
46412;BME280;32113;42.012;24.870;2023-06-14T02:29:39;98613.50;;;21.12;79.76
46412;BME280;32113;42.012;24.870;2023-06-14T02:32:05;98605.97;;;21.07;80.30
46412;BME280;32113;42.012;24.870;2023-06-14T02:34:33;98608.66;;;21.06;80.72
46412;BME280;32113;42.012;24.870;2023-06-14T02:36:59;98607.00;;;21.05;79.70
46412;BME280;32113;42.012;24.870;2023-06-14T02:39:24;98617.22;;;21.08;79.33
46412;BME280;32113;42.012;24.870;2023-06-14T02:41:50;98610.06;;;21.11;78.00
46412;BME280;32113;42.012;24.870;2023-06-14T02:44:17;98614.16;;;21.16;77.60
46412;BME280;32113;42.012;24.870;2023-06-14T02:46:44;98620.88;;;21.20;77.30
46412;BME280;32113;42.012;24.870;2023-06-14T02:49:10;98621.59;;;21.22;76.57
46412;BME280;32113;42.012;24.870;2023-06-14T02:51:36;98619.63;;;21.25;76.11
46412;BME280;32113;42.012;24.870;2023-06-14T02:54:01;98625.72;;;21.11;75.76
46412;BME280;32113;42.012;24.870;2023-06-14T02:56:27;98618.44;;;21.17;75.73
46412;BME280;32113;42.012;24.870;2023-06-14T02:58:53;98625.16;;;21.21;75.40
46412;BME280;32113;42.012;24.870;2023-06-14T03:01:18;98619.38;;;21.16;75.44
46412;BME280;32113;42.012;24.870;2023-06-14T03:03:45;98629.91;;;21.14;75.82
46412;BME280;32113;42.012;24.870;2023-06-14T03:06:11;98625.72;;;21.11;76.27
46412;BME280;32113;42.012;24.870;2023-06-14T03:08:39;98628.97;;;21.15;75.88
46412;BME280;32113;42.012;24.870;2023-06-14T03:11:05;98629.53;;;21.20;76.32
46412;BME280;32113;42.012;24.870;2023-06-14T03:13:31;98627.38;;;21.27;75.54
46412;BME280;32113;42.012;24.870;2023-06-14T03:15:57;98629.03;;;21.28;74.72
46412;BME280;32113;42.012;24.870;2023-06-14T03:18:23;98634.25;;;21.28;74.45
46412;BME280;32113;42.012;24.870;2023-06-14T03:20:48;98625.41;;;21.31;74.24
46412;BME280;32113;42.012;24.870;2023-06-14T03:23:14;98633.34;;;21.29;74.63
46412;BME280;32113;42.012;24.870;2023-06-14T03:25:39;98633.13;;;21.32;75.08
46412;BME280;32113;42.012;24.870;2023-06-14T03:28:07;98636.50;;;21.34;75.63
46412;BME280;32113;42.012;24.870;2023-06-14T03:30:32;98644.03;;;21.39;76.02
46412;BME280;32113;42.012;24.870;2023-06-14T03:32:58;98646.66;;;21.39;76.40
46412;BME280;32113;42.012;24.870;2023-06-14T03:35:26;98649.66;;;21.33;77.29
46412;BME280;32113;42.012;24.870;2023-06-14T03:37:52;98649.56;;;21.34;77.17
46412;BME280;32113;42.012;24.870;2023-06-14T03:40:18;98658.97;;;21.37;77.66
46412;BME280;32113;42.012;24.870;2023-06-14T03:42:44;98659.88;;;21.36;78.81
46412;BME280;32113;42.012;24.870;2023-06-14T03:45:09;98669.41;;;21.37;79.07
46412;BME280;32113;42.012;24.870;2023-06-14T03:47:35;98669.41;;;21.37;80.03
46412;BME280;32113;42.012;24.870;2023-06-14T03:50:02;98670.31;;;21.36;81.24
46412;BME280;32113;42.012;24.870;2023-06-14T03:52:27;98671.25;;;21.35;82.25
46412;BME280;32113;42.012;24.870;2023-06-14T03:54:53;98674.78;;;21.34;83.00
46412;BME280;32113;42.012;24.870;2023-06-14T03:57:19;98681.69;;;21.35;83.88
46412;BME280;32113;42.012;24.870;2023-06-14T03:59:45;98677.97;;;21.39;84.23
46412;BME280;32113;42.012;24.870;2023-06-14T04:02:10;98680.75;;;21.36;84.89
46412;BME280;32113;42.012;24.870;2023-06-14T04:04:37;98681.50;;;21.38;85.50
46412;BME280;32113;42.012;24.870;2023-06-14T04:07:03;98686.34;;;21.30;86.46
46412;BME280;32113;42.012;24.870;2023-06-14T04:09:31;98677.78;;;21.27;87.51
46412;BME280;32113;42.012;24.870;2023-06-14T04:11:57;98680.19;;;21.31;87.86
46412;BME280;32113;42.012;24.870;2023-06-14T04:14:22;98689.72;;;21.32;87.91
46412;BME280;32113;42.012;24.870;2023-06-14T04:16:48;98688.78;;;21.33;88.28
46412;BME280;32113;42.012;24.870;2023-06-14T04:19:15;98685.22;;;21.34;88.40
46412;BME280;32113;42.012;24.870;2023-06-14T04:21:41;98690.16;;;21.38;88.57
46412;BME280;32113;42.012;24.870;2023-06-14T04:24:07;98685.03;;;21.51;87.76
46412;BME280;32113;42.012;24.870;2023-06-14T04:26:38;98684.38;;;21.62;86.70
46412;BME280;32113;42.012;24.870;2023-06-14T04:29:04;98691.06;;;21.66;86.01
46412;BME280;32113;42.012;24.870;2023-06-14T04:31:30;98694.84;;;21.77;85.04
46412;BME280;32113;42.012;24.870;2023-06-14T04:33:59;98693.59;;;21.83;84.64
46412;BME280;32113;42.012;24.870;2023-06-14T04:36:24;98702.19;;;21.85;84.39
46412;BME280;32113;42.012;24.870;2023-06-14T04:38:53;98695.53;;;21.94;83.48
46412;BME280;32113;42.012;24.870;2023-06-14T04:41:20;98700.66;;;21.95;83.53
46412;BME280;32113;42.012;24.870;2023-06-14T04:43:48;98701.19;;;22.00;82.92
46412;BME280;32113;42.012;24.870;2023-06-14T04:46:14;98699.22;;;22.04;82.15
46412;BME280;32113;42.012;24.870;2023-06-14T04:48:40;98702.16;;;21.99;81.46
46412;BME280;32113;42.012;24.870;2023-06-14T04:51:08;98703.91;;;21.99;81.59
46412;BME280;32113;42.012;24.870;2023-06-14T04:53:33;98702.78;;;22.03;81.80
46412;BME280;32113;42.012;24.870;2023-06-14T04:55:59;98712.19;;;22.05;81.79
46412;BME280;32113;42.012;24.870;2023-06-14T04:58:26;98717.13;;;22.10;80.78
46412;BME280;32113;42.012;24.870;2023-06-14T05:00:52;98711.81;;;22.12;81.22
46412;BME280;32113;42.012;24.870;2023-06-14T05:03:18;98717.78;;;22.14;81.24
46412;BME280;32113;42.012;24.870;2023-06-14T05:05:46;98715.69;;;22.19;80.87
46412;BME280;32113;42.012;24.870;2023-06-14T05:08:11;98714.13;;;22.16;81.42
46412;BME280;32113;42.012;24.870;2023-06-14T05:10:37;98720.94;;;22.19;81.53
46412;BME280;32113;42.012;24.870;2023-06-14T05:13:02;98724.84;;;22.26;81.36
46412;BME280;32113;42.012;24.870;2023-06-14T05:15:28;98727.22;;;22.29;80.53
46412;BME280;32113;42.012;24.870;2023-06-14T05:17:54;98725.66;;;22.27;80.06
46412;BME280;32113;42.012;24.870;2023-06-14T05:20:21;98728.06;;;22.30;80.67
46412;BME280;32113;42.012;24.870;2023-06-14T05:22:48;98729.66;;;22.33;80.50
46412;BME280;32113;42.012;24.870;2023-06-14T05:25:16;98738.97;;;22.37;79.43
46412;BME280;32113;42.012;24.870;2023-06-14T05:27:42;98738.63;;;22.28;79.65
46412;BME280;32113;42.012;24.870;2023-06-14T05:30:08;98745.97;;;22.36;78.77
46412;BME280;32113;42.012;24.870;2023-06-14T05:32:33;98739.59;;;22.40;78.11
46412;BME280;32113;42.012;24.870;2023-06-14T05:34:59;98748.75;;;22.48;78.23
46412;BME280;32113;42.012;24.870;2023-06-14T05:37:24;98749.22;;;22.54;78.39
46412;BME280;32113;42.012;24.870;2023-06-14T05:39:50;98747.03;;;22.61;78.13
46412;BME280;32113;42.012;24.870;2023-06-14T05:42:15;98755.94;;;22.72;77.38
46412;BME280;32113;42.012;24.870;2023-06-14T05:44:41;98759.91;;;22.77;77.15
46412;BME280;32113;42.012;24.870;2023-06-14T05:47:06;98752.50;;;22.84;77.16
46412;BME280;32113;42.012;24.870;2023-06-14T05:49:32;98746.78;;;22.92;76.87
46412;BME280;32113;42.012;24.870;2023-06-14T05:51:57;98752.13;;;23.03;76.06
46412;BME280;32113;42.012;24.870;2023-06-14T05:54:22;98764.59;;;23.13;75.45
46412;BME280;32113;42.012;24.870;2023-06-14T05:56:48;98758.22;;;23.17;74.71
46412;BME280;32113;42.012;24.870;2023-06-14T05:59:13;98764.16;;;23.19;74.40
46412;BME280;32113;42.012;24.870;2023-06-14T06:01:39;98763.97;;;23.22;73.60
46412;BME280;32113;42.012;24.870;2023-06-14T06:04:05;98763.78;;;23.25;73.43
46412;BME280;32113;42.012;24.870;2023-06-14T06:06:31;98758.75;;;23.35;73.27
46412;BME280;32113;42.012;24.870;2023-06-14T06:08:57;98752.91;;;23.44;72.90
46412;BME280;32113;42.012;24.870;2023-06-14T06:11:23;98757.72;;;23.51;72.55
46412;BME280;32113;42.012;24.870;2023-06-14T06:13:48;98753.63;;;23.59;71.30
46412;BME280;32113;42.012;24.870;2023-06-14T06:16:14;98753.44;;;23.62;71.55
46412;BME280;32113;42.012;24.870;2023-06-14T06:18:40;98748.56;;;23.69;69.95
46412;BME280;32113;42.012;24.870;2023-06-14T06:21:06;98759.25;;;23.79;69.34
46412;BME280;32113;42.012;24.870;2023-06-14T06:23:31;98760.09;;;23.80;68.77
46412;BME280;32113;42.012;24.870;2023-06-14T06:25:57;98753.69;;;23.84;68.47
46412;BME280;32113;42.012;24.870;2023-06-14T06:28:22;98752.97;;;23.82;70.27
46412;BME280;32113;42.012;24.870;2023-06-14T06:30:48;98758.59;;;23.88;68.38
46412;BME280;32113;42.012;24.870;2023-06-14T06:33:13;98762.78;;;23.91;68.11
46412;BME280;32113;42.012;24.870;2023-06-14T06:35:39;98766.53;;;24.00;67.85
46412;BME280;32113;42.012;24.870;2023-06-14T06:38:05;98759.31;;;24.04;67.55
46412;BME280;32113;42.012;24.870;2023-06-14T06:40:30;98764.13;;;24.10;67.35
46412;BME280;32113;42.012;24.870;2023-06-14T06:42:56;98759.91;;;24.20;66.27
46412;BME280;32113;42.012;24.870;2023-06-14T06:45:21;98769.09;;;24.26;66.61
46412;BME280;32113;42.012;24.870;2023-06-14T06:47:48;98759.63;;;24.36;65.94
46412;BME280;32113;42.012;24.870;2023-06-14T06:50:14;98769.44;;;24.46;66.02
46412;BME280;32113;42.012;24.870;2023-06-14T06:52:39;98765.19;;;24.56;65.66
46412;BME280;32113;42.012;24.870;2023-06-14T06:55:05;98765.25;;;24.67;64.51
46412;BME280;32113;42.012;24.870;2023-06-14T06:57:31;98771.69;;;24.75;64.47
46412;BME280;32113;42.012;24.870;2023-06-14T06:59:57;98770.31;;;24.82;63.51
46412;BME280;32113;42.012;24.870;2023-06-14T07:02:22;98762.97;;;24.87;62.92
46412;BME280;32113;42.012;24.870;2023-06-14T07:04:48;98768.22;;;24.87;63.10
46412;BME280;32113;42.012;24.870;2023-06-14T07:07:13;98766.44;;;24.88;63.13
46412;BME280;32113;42.012;24.870;2023-06-14T07:09:38;98765.59;;;24.99;62.09
46412;BME280;32113;42.012;24.870;2023-06-14T07:12:04;98761.94;;;25.01;61.72
46412;BME280;32113;42.012;24.870;2023-06-14T07:14:30;98766.81;;;25.06;61.82
46412;BME280;32113;42.012;24.870;2023-06-14T07:16:55;98765.88;;;25.07;61.73
46412;BME280;32113;42.012;24.870;2023-06-14T07:19:21;98767.41;;;25.10;62.08
46412;BME280;32113;42.012;24.870;2023-06-14T07:21:46;98763.03;;;25.10;61.70
46412;BME280;32113;42.012;24.870;2023-06-14T07:24:11;98764.22;;;25.17;61.22
46412;BME280;32113;42.012;24.870;2023-06-14T07:26:37;98764.47;;;25.14;59.84
46412;BME280;32113;42.012;24.870;2023-06-14T07:29:02;98775.66;;;25.16;59.49
46412;BME280;32113;42.012;24.870;2023-06-14T07:31:28;98768.06;;;25.13;59.85
46412;BME280;32113;42.012;24.870;2023-06-14T07:33:53;98760.03;;;25.15;59.76
46412;BME280;32113;42.012;24.870;2023-06-14T07:36:19;98761.94;;;25.13;60.35
46412;BME280;32113;42.012;24.870;2023-06-14T07:38:45;98760.66;;;25.18;60.82
46412;BME280;32113;42.012;24.870;2023-06-14T07:41:11;98767.69;;;25.18;60.01
46412;BME280;32113;42.012;24.870;2023-06-14T07:43:36;98765.75;;;25.20;61.32
46412;BME280;32113;42.012;24.870;2023-06-14T07:46:02;98760.88;;;25.27;58.76
46412;BME280;32113;42.012;24.870;2023-06-14T07:48:27;98758.03;;;25.30;58.93
46412;BME280;32113;42.012;24.870;2023-06-14T07:50:53;98761.03;;;25.37;58.30
46412;BME280;32113;42.012;24.870;2023-06-14T07:53:18;98763.06;;;25.33;58.53
46412;BME280;32113;42.012;24.870;2023-06-14T07:55:44;98762.81;;;25.25;58.41
46412;BME280;32113;42.012;24.870;2023-06-14T07:58:09;98758.88;;;25.30;58.70
46412;BME280;32113;42.012;24.870;2023-06-14T08:00:36;98751.50;;;25.36;58.86
46412;BME280;32113;42.012;24.870;2023-06-14T08:03:01;98761.88;;;25.37;57.69
46412;BME280;32113;42.012;24.870;2023-06-14T08:05:27;98772.59;;;25.34;57.58
46412;BME280;32113;42.012;24.870;2023-06-14T08:07:53;98768.31;;;25.33;56.66
46412;BME280;32113;42.012;24.870;2023-06-14T08:10:19;98764.84;;;25.32;57.34
46412;BME280;32113;42.012;24.870;2023-06-14T08:12:45;98768.31;;;25.33;58.12
46412;BME280;32113;42.012;24.870;2023-06-14T08:15:10;98766.16;;;25.38;59.22
46412;BME280;32113;42.012;24.870;2023-06-14T08:17:36;98773.06;;;25.51;57.78
46412;BME280;32113;42.012;24.870;2023-06-14T08:20:02;98774.44;;;25.56;58.14
46412;BME280;32113;42.012;24.870;2023-06-14T08:22:29;98774.44;;;25.68;57.82
46412;BME280;32113;42.012;24.870;2023-06-14T08:24:57;98779.09;;;25.76;56.47
46412;BME280;32113;42.012;24.870;2023-06-14T08:27:23;98776.09;;;25.80;56.45
46412;BME280;32113;42.012;24.870;2023-06-14T08:29:48;98783.25;;;25.90;55.89
46412;BME280;32113;42.012;24.870;2023-06-14T08:32:13;98782.91;;;25.94;56.63
46412;BME280;32113;42.012;24.870;2023-06-14T08:34:39;98774.28;;;26.04;56.13
46412;BME280;32113;42.012;24.870;2023-06-14T08:37:04;98777.50;;;26.07;56.05
46412;BME280;32113;42.012;24.870;2023-06-14T08:39:30;98786.81;;;26.11;56.43
46412;BME280;32113;42.012;24.870;2023-06-14T08:41:56;98798.16;;;26.23;56.04
46412;BME280;32113;42.012;24.870;2023-06-14T08:44:22;98785.72;;;26.26;54.73
46412;BME280;32113;42.012;24.870;2023-06-14T08:46:48;98795.78;;;26.32;54.44
46412;BME280;32113;42.012;24.870;2023-06-14T08:49:16;98795.50;;;26.35;55.23
46412;BME280;32113;42.012;24.870;2023-06-14T08:51:43;98799.91;;;26.46;55.74
46412;BME280;32113;42.012;24.870;2023-06-14T08:54:10;98789.72;;;26.53;55.63
46412;BME280;32113;42.012;24.870;2023-06-14T08:56:37;98786.59;;;26.59;54.21
46412;BME280;32113;42.012;24.870;2023-06-14T08:59:03;98787.19;;;26.62;54.47
46412;BME280;32113;42.012;24.870;2023-06-14T09:01:33;98785.53;;;26.61;55.15
46412;BME280;32113;42.012;24.870;2023-06-14T09:03:59;98783.59;;;26.63;54.54
46412;BME280;32113;42.012;24.870;2023-06-14T09:06:25;98783.19;;;26.68;54.93
46412;BME280;32113;42.012;24.870;2023-06-14T09:08:50;98778.53;;;26.72;55.03
46412;BME280;32113;42.012;24.870;2023-06-14T09:11:19;98780.09;;;26.74;54.96
46412;BME280;32113;42.012;24.870;2023-06-14T09:13:45;98785.06;;;26.77;54.25
46412;BME280;32113;42.012;24.870;2023-06-14T09:16:11;98782.59;;;26.76;54.23
46412;BME280;32113;42.012;24.870;2023-06-14T09:21:07;98775.00;;;26.94;53.56
46412;BME280;32113;42.012;24.870;2023-06-14T09:23:39;98775.09;;;26.93;54.90
46412;BME280;32113;42.012;24.870;2023-06-14T09:26:12;98769.47;;;26.97;54.31
46412;BME280;32113;42.012;24.870;2023-06-14T09:28:44;98762.66;;;27.16;53.33
46412;BME280;32113;42.012;24.870;2023-06-14T09:31:11;98764.69;;;27.12;51.90
46412;BME280;32113;42.012;24.870;2023-06-14T09:33:37;98763.53;;;27.26;53.06
46412;BME280;32113;42.012;24.870;2023-06-14T09:36:04;98761.56;;;27.19;51.71
46412;BME280;32113;42.012;24.870;2023-06-14T09:38:30;98768.69;;;27.28;52.16
46412;BME280;32113;42.012;24.870;2023-06-14T09:40:58;98765.41;;;27.36;52.92
46412;BME280;32113;42.012;24.870;2023-06-14T09:43:24;98769.09;;;27.54;52.84
46412;BME280;32113;42.012;24.870;2023-06-14T09:45:53;98767.59;;;27.62;52.29
46412;BME280;32113;42.012;24.870;2023-06-14T09:48:19;98765.81;;;27.62;51.79
46412;BME280;32113;42.012;24.870;2023-06-14T09:50:45;98760.00;;;27.68;51.26
46412;BME280;32113;42.012;24.870;2023-06-14T09:53:11;98754.59;;;27.70;50.59
46412;BME280;32113;42.012;24.870;2023-06-14T09:55:40;98763.34;;;27.71;49.67
46412;BME280;32113;42.012;24.870;2023-06-14T09:58:06;98758.34;;;27.67;50.69
46412;BME280;32113;42.012;24.870;2023-06-14T10:00:33;98753.63;;;27.71;52.16
46412;BME280;32113;42.012;24.870;2023-06-14T10:03:11;98756.88;;;27.85;52.08
46412;BME280;32113;42.012;24.870;2023-06-14T10:05:37;98757.88;;;28.03;53.13
46412;BME280;32113;42.012;24.870;2023-06-14T10:08:08;98745.84;;;28.20;50.85
46412;BME280;32113;42.012;24.870;2023-06-14T10:10:33;98738.81;;;28.41;50.78
46412;BME280;32113;42.012;24.870;2023-06-14T10:12:59;98743.94;;;28.62;50.10
46412;BME280;32113;42.012;24.870;2023-06-14T10:20:36;98744.66;;;28.35;48.51
46412;BME280;32113;42.012;24.870;2023-06-14T10:23:12;98745.00;;;28.10;49.07
46412;BME280;32113;42.012;24.870;2023-06-14T10:25:38;98745.78;;;27.81;49.27
46412;BME280;32113;42.012;24.870;2023-06-14T10:28:22;98739.97;;;27.56;50.20
46412;BME280;32113;42.012;24.870;2023-06-14T10:31:05;98739.88;;;27.36;52.70
46412;BME280;32113;42.012;24.870;2023-06-14T10:33:49;98735.69;;;27.24;53.41
46412;BME280;32113;42.012;24.870;2023-06-14T10:41:28;98732.63;;;26.97;53.83
46412;BME280;32113;42.012;24.870;2023-06-14T10:46:38;98727.84;;;26.91;53.92
46412;BME280;32113;42.012;24.870;2023-06-14T10:49:04;98734.28;;;26.98;53.88
46412;BME280;32113;42.012;24.870;2023-06-14T10:51:38;98733.09;;;26.91;55.34
46412;BME280;32113;42.012;24.870;2023-06-14T10:54:14;98736.38;;;26.83;55.65
46412;BME280;32113;42.012;24.870;2023-06-14T10:56:50;98731.50;;;26.79;56.61
46412;BME280;32113;42.012;24.870;2023-06-14T10:59:17;98728.88;;;26.79;57.94
46412;BME280;32113;42.012;24.870;2023-06-14T11:04:14;98725.06;;;26.71;57.88
46412;BME280;32113;42.012;24.870;2023-06-14T11:11:57;98724.38;;;26.69;58.62
46412;BME280;32113;42.012;24.870;2023-06-14T11:14:23;98726.63;;;26.74;58.87
46412;BME280;32113;42.012;24.870;2023-06-14T11:16:49;98723.09;;;26.85;59.36
46412;BME280;32113;42.012;24.870;2023-06-14T11:19:15;98733.44;;;26.98;57.57
46412;BME280;32113;42.012;24.870;2023-06-14T11:21:42;98733.75;;;27.05;56.78
46412;BME280;32113;42.012;24.870;2023-06-14T11:24:11;98736.59;;;27.13;56.46
46412;BME280;32113;42.012;24.870;2023-06-14T11:26:37;98729.66;;;27.12;56.26
46412;BME280;32113;42.012;24.870;2023-06-14T11:29:03;98727.78;;;27.24;57.01
46412;BME280;32113;42.012;24.870;2023-06-14T11:31:29;98725.34;;;27.32;56.39
46412;BME280;32113;42.012;24.870;2023-06-14T11:33:58;98723.88;;;27.18;55.53
46412;BME280;32113;42.012;24.870;2023-06-14T11:36:31;98722.63;;;27.22;56.22
46412;BME280;32113;42.012;24.870;2023-06-14T11:39:02;98724.88;;;27.27;54.45
46412;BME280;32113;42.012;24.870;2023-06-14T11:41:46;98724.06;;;27.26;55.60
46412;BME280;32113;42.012;24.870;2023-06-14T11:44:12;98716.16;;;27.26;56.46
46412;BME280;32113;42.012;24.870;2023-06-14T11:46:38;98715.63;;;27.33;54.59
46412;BME280;32113;42.012;24.870;2023-06-14T11:49:04;98712.44;;;27.39;54.98
46412;BME280;32113;42.012;24.870;2023-06-14T11:51:34;98709.84;;;27.49;54.99
46412;BME280;32113;42.012;24.870;2023-06-14T11:54:01;98708.38;;;27.56;54.57
46412;BME280;32113;42.012;24.870;2023-06-14T11:56:28;98708.53;;;27.64;54.79
46412;BME280;32113;42.012;24.870;2023-06-14T11:58:54;98700.84;;;27.83;54.09
46412;BME280;32113;42.012;24.870;2023-06-14T12:01:22;98706.41;;;27.89;54.46
46412;BME280;32113;42.012;24.870;2023-06-14T12:03:49;98698.78;;;27.96;54.32
46412;BME280;32113;42.012;24.870;2023-06-14T12:06:15;98690.34;;;28.12;53.95
46412;BME280;32113;42.012;24.870;2023-06-14T12:08:42;98691.97;;;28.23;51.51
46412;BME280;32113;42.012;24.870;2023-06-14T12:11:11;98696.56;;;28.21;51.67
46412;BME280;32113;42.012;24.870;2023-06-14T12:13:41;98696.16;;;28.16;52.03
46412;BME280;32113;42.012;24.870;2023-06-14T12:16:10;98701.16;;;28.09;51.72
46412;BME280;32113;42.012;24.870;2023-06-14T12:18:38;98691.97;;;28.03;51.57
46412;BME280;32113;42.012;24.870;2023-06-14T12:21:08;98693.78;;;28.13;52.22
46412;BME280;32113;42.012;24.870;2023-06-14T12:23:53;98693.63;;;27.75;50.70
46412;BME280;32113;42.012;24.870;2023-06-14T12:26:19;98691.91;;;27.64;52.30
46412;BME280;32113;42.012;24.870;2023-06-14T12:28:45;98687.13;;;27.58;52.39
46412;BME280;32113;42.012;24.870;2023-06-14T12:31:12;98676.28;;;27.51;51.34
46412;BME280;32113;42.012;24.870;2023-06-14T12:33:42;98669.25;;;27.51;53.00
46412;BME280;32113;42.012;24.870;2023-06-14T12:36:08;98659.94;;;27.47;51.89
46412;BME280;32113;42.012;24.870;2023-06-14T12:38:35;98657.31;;;27.47;52.17
46412;BME280;32113;42.012;24.870;2023-06-14T12:41:01;98660.94;;;27.56;52.01
46412;BME280;32113;42.012;24.870;2023-06-14T12:43:27;98657.66;;;27.64;50.82
46412;BME280;32113;42.012;24.870;2023-06-14T12:45:53;98649.47;;;27.67;50.12
46412;BME280;32113;42.012;24.870;2023-06-14T12:48:19;98650.88;;;27.61;51.37
46412;BME280;32113;42.012;24.870;2023-06-14T12:50:45;98645.59;;;27.71;51.26
46412;BME280;32113;42.012;24.870;2023-06-14T12:53:10;98646.03;;;27.76;51.48
46412;BME280;32113;42.012;24.870;2023-06-14T12:55:36;98629.81;;;27.81;51.01
46412;BME280;32113;42.012;24.870;2023-06-14T12:58:01;98639.53;;;27.90;50.04
46412;BME280;32113;42.012;24.870;2023-06-14T13:00:27;98637.88;;;27.89;49.69
46412;BME280;32113;42.012;24.870;2023-06-14T13:02:52;98628.44;;;27.87;49.60
46412;BME280;32113;42.012;24.870;2023-06-14T13:05:18;98637.56;;;27.92;50.27
46412;BME280;32113;42.012;24.870;2023-06-14T13:07:43;98632.44;;;27.91;50.62
46412;BME280;32113;42.012;24.870;2023-06-14T13:10:10;98628.56;;;27.85;46.91
46412;BME280;32113;42.012;24.870;2023-06-14T13:12:35;98619.00;;;27.94;47.25
46412;BME280;32113;42.012;24.870;2023-06-14T13:15:01;98627.19;;;28.11;48.15